Dai 8 Tokuharu — JD3710 — position and weather

sailwx.info

Track history (hours):
 
Tides and Currents Weather Stations Pressure Air Temp Water Temp Dewpoint Dewpoint Depression Visibility Wind Speed Wind Dir Waves Ship Positions

Dai 8 Tokuharu

Last reported at 2017-Sep-21 19:42 UTC. Time now 2017-Sep-22 04:19 UTC.
Position N 34°41' E 134°51'.

Length 82 m; draft 5 m.

Type: Cargo ship. MMSI: 431005534.

Date/timePositionNaut miles runAvg speedWind from/ knotsBaromVisibWave heightAir tempDewpointWater temp
2017-Sep-21 19:42N 34°41' E 134°51'2 7.6
2017-Sep-21 19:23N 34°39' E 134°52'5 9.9
2017-Sep-21 18:52N 34°37' E 134°58'3 9.2
2017-Sep-21 18:30N 34°37' E 135°02'4 7.3
2017-Sep-21 18:00N 34°35' E 135°05'510.5
2017-Sep-21 17:30N 34°30' E 135°03'510.8
2017-Sep-21 17:00N 34°25' E 135°02'1010.1
2017-Sep-21 16:03N 34°15' E 134°59'110.1
2017-Sep-21 15:59N 34°15' E 134°59'510.9
2017-Sep-21 15:30N 34°09' E 134°58'3 0.1
2017-Sep-20 18:03N 34°08' E 134°56'113.6
2017-Sep-20 17:58N 34°09' E 134°56'814.5
2017-Sep-20 17:26N 34°16' E 134°58'614.0
2017-Sep-20 16:59N 34°23' E 134°60'713.5
2017-Sep-20 16:30N 34°29' E 135°02'613.0
2017-Sep-20 16:00N 34°35' E 135°03'713.1
2017-Sep-20 15:30N 34°37' E 134°55'6 0.2
2017-Sep-19 14:44N 34°41' E 134°51'7 8.8
2017-Sep-19 13:53N 34°38' E 134°59'411.5
2017-Sep-19 13:31N 34°36' E 135°03'510.7
2017-Sep-19 13:01N 34°31' E 135°04'712.4
2017-Sep-19 12:29N 34°24' E 135°02'912.6
2017-Sep-19 11:46N 34°16' E 134°59'312.7
2017-Sep-19 11:30N 34°12' E 134°58'5 0.2
2017-Sep-18 11:01N 34°08' E 134°56'411.6
2017-Sep-18 10:39N 34°12' E 134°57'211.1
2017-Sep-18 10:29N 34°14' E 134°58'13 9.5
2017-Sep-18 09:05N 34°26' E 135°04'211.9
2017-Sep-18 08:57N 34°27' E 135°06'612.3
2017-Sep-18 08:30N 34°30' E 135°11'611.7
2017-Sep-18 08:00N 34°35' E 135°15'611.2
2017-Sep-18 07:30N 34°40' E 135°15'2 3.1
2017-Sep-18 07:00N 34°42' E 135°14'0 0.0
2017-Sep-18 06:30N 34°42' E 135°14'0 0.0
2017-Sep-18 06:00N 34°42' E 135°14'0 0.0
2017-Sep-18 05:30N 34°42' E 135°14'0 0.0
2017-Sep-18 05:01N 34°42' E 135°14'0 0.0
2017-Sep-18 04:30N 34°42' E 135°14'0 0.0
2017-Sep-18 04:00N 34°42' E 135°14'0 0.0
2017-Sep-18 03:30N 34°42' E 135°14'0 0.0
2017-Sep-18 03:01N 34°42' E 135°14'0 0.0
2017-Sep-18 02:31N 34°42' E 135°14'4 7.0
2017-Sep-18 02:00N 34°39' E 135°16'510.7
2017-Sep-18 01:30N 34°36' E 135°10'611.3
2017-Sep-18 01:00N 34°35' E 135°04'611.6
2017-Sep-18 00:29N 34°36' E 134°56'  
Track history (hours):
 
Tides and Currents Weather Stations Pressure Air Temp Water Temp Dewpoint Dewpoint Depression Visibility Wind Speed Wind Dir Waves Ship Positions

Dai 8 Tokuharu

Last reported at 2017-Sep-21 19:42 UTC. Time now 2017-Sep-22 04:19 UTC.
Position N 34°41' E 134°51'.

Length 82 m; draft 5 m.

Type: Cargo ship. MMSI: 431005534.

Date/timePositionNaut miles runAvg speedWind from/ knotsBaromVisibWave heightAir tempDewpointWater temp
2017-Sep-21 19:42N 34°41' E 134°51'2 7.6
2017-Sep-21 19:23N 34°39' E 134°52'5 9.9
2017-Sep-21 18:52N 34°37' E 134°58'3 9.2
2017-Sep-21 18:30N 34°37' E 135°02'4 7.3
2017-Sep-21 18:00N 34°35' E 135°05'510.5
2017-Sep-21 17:30N 34°30' E 135°03'510.8
2017-Sep-21 17:00N 34°25' E 135°02'1010.1
2017-Sep-21 16:03N 34°15' E 134°59'110.1
2017-Sep-21 15:59N 34°15' E 134°59'510.9
2017-Sep-21 15:30N 34°09' E 134°58'3 0.1
2017-Sep-20 18:03N 34°08' E 134°56'113.6
2017-Sep-20 17:58N 34°09' E 134°56'814.5
2017-Sep-20 17:26N 34°16' E 134°58'614.0
2017-Sep-20 16:59N 34°23' E 134°60'713.5
2017-Sep-20 16:30N 34°29' E 135°02'613.0
2017-Sep-20 16:00N 34°35' E 135°03'713.1
2017-Sep-20 15:30N 34°37' E 134°55'6 0.2
2017-Sep-19 14:44N 34°41' E 134°51'7 8.8
2017-Sep-19 13:53N 34°38' E 134°59'411.5
2017-Sep-19 13:31N 34°36' E 135°03'510.7
2017-Sep-19 13:01N 34°31' E 135°04'712.4
2017-Sep-19 12:29N 34°24' E 135°02'912.6
2017-Sep-19 11:46N 34°16' E 134°59'312.7
2017-Sep-19 11:30N 34°12' E 134°58'5 0.2
2017-Sep-18 11:01N 34°08' E 134°56'411.6
2017-Sep-18 10:39N 34°12' E 134°57'211.1
2017-Sep-18 10:29N 34°14' E 134°58'13 9.5
2017-Sep-18 09:05N 34°26' E 135°04'211.9
2017-Sep-18 08:57N 34°27' E 135°06'612.3
2017-Sep-18 08:30N 34°30' E 135°11'611.7
2017-Sep-18 08:00N 34°35' E 135°15'611.2
2017-Sep-18 07:30N 34°40' E 135°15'2 3.1
2017-Sep-18 07:00N 34°42' E 135°14'0 0.0
2017-Sep-18 06:30N 34°42' E 135°14'0 0.0
2017-Sep-18 06:00N 34°42' E 135°14'0 0.0
2017-Sep-18 05:30N 34°42' E 135°14'0 0.0
2017-Sep-18 05:01N 34°42' E 135°14'0 0.0
2017-Sep-18 04:30N 34°42' E 135°14'0 0.0
2017-Sep-18 04:00N 34°42' E 135°14'0 0.0
2017-Sep-18 03:30N 34°42' E 135°14'0 0.0
2017-Sep-18 03:01N 34°42' E 135°14'0 0.0
2017-Sep-18 02:31N 34°42' E 135°14'4 7.0
2017-Sep-18 02:00N 34°39' E 135°16'510.7
2017-Sep-18 01:30N 34°36' E 135°10'611.3
2017-Sep-18 01:00N 34°35' E 135°04'611.6
2017-Sep-18 00:29N 34°36' E 134°56'  

Dump ship's entire track history